Terminal Aerodrome Forecast
Issued by NWS

Home | Current Version | Previous Version | Text Only | Print | Product List | Glossary On
Versions: 1 2 3 4 5 6 7 8 9 10 11 12 13 14 15 16 17 18
000
FTUS43 KGRB 282100 AAA
TAFCWA
TAF AMD
KCWA 282143Z 2822/2918 13007KT 6SM -SN BR SCT015 OVC050
      TEMPO 2822/2824 4SM -PLSN OVC015
     FM290000 17005KT 4SM -FZDZ BR OVC012
     FM290300 16004KT 2SM BR OVC009
     FM290800 16004KT 2SM BR OVC009
     FM291600 17006KT 3SM BR BKN008 BKN035=

USA.gov is the U.S. government's official web portal to all federal, state and local government web resources and services.